sensor_id;sensor_type;location;lat;lon;timestamp;P1;durP1;ratioP1;P2;durP2;ratioP2
9254;SDS011;4663;49.120;9.730;2023-05-07T00:01:34;38.15;;;36.13;;
9254;SDS011;4663;49.120;9.730;2023-05-07T00:04:00;40.03;;;37.97;;
9254;SDS011;4663;49.120;9.730;2023-05-07T00:06:25;38.53;;;36.15;;
9254;SDS011;4663;49.120;9.730;2023-05-07T00:08:51;38.05;;;36.03;;
9254;SDS011;4663;49.120;9.730;2023-05-07T00:11:17;37.77;;;35.77;;
9254;SDS011;4663;49.120;9.730;2023-05-07T00:13:42;39.60;;;37.33;;
9254;SDS011;4663;49.120;9.730;2023-05-07T00:16:07;34.70;;;32.73;;
9254;SDS011;4663;49.120;9.730;2023-05-07T00:18:33;35.50;;;33.67;;
9254;SDS011;4663;49.120;9.730;2023-05-07T00:20:58;34.30;;;32.38;;
9254;SDS011;4663;49.120;9.730;2023-05-07T00:23:23;34.83;;;32.20;;
9254;SDS011;4663;49.120;9.730;2023-05-07T00:25:49;35.53;;;33.65;;
9254;SDS011;4663;49.120;9.730;2023-05-07T00:28:14;34.35;;;32.47;;
9254;SDS011;4663;49.120;9.730;2023-05-07T00:30:39;32.47;;;30.83;;
9254;SDS011;4663;49.120;9.730;2023-05-07T00:33:05;34.03;;;32.25;;
9254;SDS011;4663;49.120;9.730;2023-05-07T00:35:30;34.53;;;32.33;;
9254;SDS011;4663;49.120;9.730;2023-05-07T00:37:56;36.30;;;34.40;;
9254;SDS011;4663;49.120;9.730;2023-05-07T00:40:21;36.50;;;34.58;;
9254;SDS011;4663;49.120;9.730;2023-05-07T00:42:47;36.05;;;34.15;;
9254;SDS011;4663;49.120;9.730;2023-05-07T00:45:13;34.22;;;32.42;;
9254;SDS011;4663;49.120;9.730;2023-05-07T00:47:39;33.90;;;31.90;;
9254;SDS011;4663;49.120;9.730;2023-05-07T00:50:06;36.80;;;34.88;;
9254;SDS011;4663;49.120;9.730;2023-05-07T00:52:33;38.55;;;36.35;;
9254;SDS011;4663;49.120;9.730;2023-05-07T00:54:59;35.60;;;33.70;;
9254;SDS011;4663;49.120;9.730;2023-05-07T00:57:32;36.77;;;34.87;;
9254;SDS011;4663;49.120;9.730;2023-05-07T01:00:01;38.87;;;36.77;;
9254;SDS011;4663;49.120;9.730;2023-05-07T01:02:28;37.53;;;35.33;;
9254;SDS011;4663;49.120;9.730;2023-05-07T01:04:54;33.47;;;31.65;;
9254;SDS011;4663;49.120;9.730;2023-05-07T01:07:20;34.13;;;32.13;;
9254;SDS011;4663;49.120;9.730;2023-05-07T01:09:46;34.00;;;32.00;;
9254;SDS011;4663;49.120;9.730;2023-05-07T01:12:12;36.57;;;34.23;;
9254;SDS011;4663;49.120;9.730;2023-05-07T01:14:38;36.57;;;34.17;;
9254;SDS011;4663;49.120;9.730;2023-05-07T01:17:03;33.67;;;31.63;;
9254;SDS011;4663;49.120;9.730;2023-05-07T01:19:29;32.78;;;31.08;;
9254;SDS011;4663;49.120;9.730;2023-05-07T01:21:58;33.30;;;31.60;;
9254;SDS011;4663;49.120;9.730;2023-05-07T01:24:28;33.43;;;31.53;;
9254;SDS011;4663;49.120;9.730;2023-05-07T01:26:55;34.20;;;32.20;;
9254;SDS011;4663;49.120;9.730;2023-05-07T01:29:20;37.93;;;35.90;;
9254;SDS011;4663;49.120;9.730;2023-05-07T01:31:45;36.00;;;34.10;;
9254;SDS011;4663;49.120;9.730;2023-05-07T01:34:13;34.75;;;32.85;;
9254;SDS011;4663;49.120;9.730;2023-05-07T01:36:42;34.40;;;32.60;;
9254;SDS011;4663;49.120;9.730;2023-05-07T01:39:08;34.37;;;32.50;;
9254;SDS011;4663;49.120;9.730;2023-05-07T01:41:34;34.78;;;32.97;;
9254;SDS011;4663;49.120;9.730;2023-05-07T01:44:00;36.85;;;34.78;;
9254;SDS011;4663;49.120;9.730;2023-05-07T01:46:27;36.17;;;34.23;;
9254;SDS011;4663;49.120;9.730;2023-05-07T01:48:54;34.00;;;31.93;;
9254;SDS011;4663;49.120;9.730;2023-05-07T01:51:20;34.22;;;32.28;;
9254;SDS011;4663;49.120;9.730;2023-05-07T01:53:47;33.38;;;31.52;;
9254;SDS011;4663;49.120;9.730;2023-05-07T01:56:15;35.17;;;33.33;;
9254;SDS011;4663;49.120;9.730;2023-05-07T01:58:42;33.65;;;31.58;;
9254;SDS011;4663;49.120;9.730;2023-05-07T02:01:07;34.35;;;32.25;;
9254;SDS011;4663;49.120;9.730;2023-05-07T02:03:32;33.17;;;31.20;;
9254;SDS011;4663;49.120;9.730;2023-05-07T02:05:58;35.40;;;33.30;;
9254;SDS011;4663;49.120;9.730;2023-05-07T02:08:23;36.13;;;34.00;;
9254;SDS011;4663;49.120;9.730;2023-05-07T02:10:48;33.77;;;32.07;;
9254;SDS011;4663;49.120;9.730;2023-05-07T02:13:15;33.70;;;31.83;;
9254;SDS011;4663;49.120;9.730;2023-05-07T02:15:40;34.67;;;32.78;;
9254;SDS011;4663;49.120;9.730;2023-05-07T02:18:06;34.33;;;32.53;;
9254;SDS011;4663;49.120;9.730;2023-05-07T02:20:32;33.95;;;32.15;;
9254;SDS011;4663;49.120;9.730;2023-05-07T02:22:58;34.37;;;32.13;;
9254;SDS011;4663;49.120;9.730;2023-05-07T02:25:24;34.60;;;32.70;;
9254;SDS011;4663;49.120;9.730;2023-05-07T02:27:49;35.73;;;33.63;;
9254;SDS011;4663;49.120;9.730;2023-05-07T02:30:14;36.20;;;34.07;;
9254;SDS011;4663;49.120;9.730;2023-05-07T02:32:40;36.70;;;34.80;;
9254;SDS011;4663;49.120;9.730;2023-05-07T02:35:05;35.67;;;33.67;;
9254;SDS011;4663;49.120;9.730;2023-05-07T02:37:31;36.00;;;34.00;;
9254;SDS011;4663;49.120;9.730;2023-05-07T02:39:56;37.40;;;35.38;;
9254;SDS011;4663;49.120;9.730;2023-05-07T02:42:22;40.17;;;37.90;;
9254;SDS011;4663;49.120;9.730;2023-05-07T02:44:47;41.33;;;39.00;;
9254;SDS011;4663;49.120;9.730;2023-05-07T02:47:13;37.03;;;34.90;;
9254;SDS011;4663;49.120;9.730;2023-05-07T02:49:40;37.37;;;35.37;;
9254;SDS011;4663;49.120;9.730;2023-05-07T02:52:05;37.07;;;35.17;;
9254;SDS011;4663;49.120;9.730;2023-05-07T02:54:31;37.97;;;35.63;;
9254;SDS011;4663;49.120;9.730;2023-05-07T02:56:56;42.00;;;39.80;;
9254;SDS011;4663;49.120;9.730;2023-05-07T02:59:22;39.20;;;36.73;;
9254;SDS011;4663;49.120;9.730;2023-05-07T03:01:48;40.80;;;38.77;;
9254;SDS011;4663;49.120;9.730;2023-05-07T03:04:14;39.27;;;37.20;;
9254;SDS011;4663;49.120;9.730;2023-05-07T03:06:39;38.33;;;36.13;;
9254;SDS011;4663;49.120;9.730;2023-05-07T03:09:05;39.13;;;37.03;;
9254;SDS011;4663;49.120;9.730;2023-05-07T03:11:30;42.30;;;40.17;;
9254;SDS011;4663;49.120;9.730;2023-05-07T03:13:55;39.53;;;37.20;;
9254;SDS011;4663;49.120;9.730;2023-05-07T03:16:21;41.00;;;38.80;;
9254;SDS011;4663;49.120;9.730;2023-05-07T03:18:46;43.97;;;41.43;;
9254;SDS011;4663;49.120;9.730;2023-05-07T03:21:12;47.23;;;44.90;;
9254;SDS011;4663;49.120;9.730;2023-05-07T03:23:37;42.83;;;40.73;;
9254;SDS011;4663;49.120;9.730;2023-05-07T03:26:03;46.43;;;43.63;;
9254;SDS011;4663;49.120;9.730;2023-05-07T03:28:28;48.40;;;45.60;;
9254;SDS011;4663;49.120;9.730;2023-05-07T03:30:53;46.73;;;44.43;;
9254;SDS011;4663;49.120;9.730;2023-05-07T03:33:19;45.97;;;43.47;;
9254;SDS011;4663;49.120;9.730;2023-05-07T03:35:44;47.90;;;45.30;;
9254;SDS011;4663;49.120;9.730;2023-05-07T03:38:09;47.77;;;45.27;;
9254;SDS011;4663;49.120;9.730;2023-05-07T03:40:35;45.63;;;43.33;;
9254;SDS011;4663;49.120;9.730;2023-05-07T03:43:00;48.80;;;45.80;;
9254;SDS011;4663;49.120;9.730;2023-05-07T03:45:26;45.57;;;43.27;;
9254;SDS011;4663;49.120;9.730;2023-05-07T03:47:51;49.53;;;46.93;;
9254;SDS011;4663;49.120;9.730;2023-05-07T03:50:16;47.43;;;45.00;;
9254;SDS011;4663;49.120;9.730;2023-05-07T03:52:42;50.40;;;47.63;;
9254;SDS011;4663;49.120;9.730;2023-05-07T03:55:07;50.37;;;47.77;;
9254;SDS011;4663;49.120;9.730;2023-05-07T03:57:33;48.53;;;46.07;;
9254;SDS011;4663;49.120;9.730;2023-05-07T03:59:58;52.23;;;49.57;;
9254;SDS011;4663;49.120;9.730;2023-05-07T04:02:24;53.03;;;50.23;;
9254;SDS011;4663;49.120;9.730;2023-05-07T04:04:49;48.70;;;46.17;;
9254;SDS011;4663;49.120;9.730;2023-05-07T04:07:15;48.13;;;45.63;;
9254;SDS011;4663;49.120;9.730;2023-05-07T04:09:40;48.93;;;46.47;;
9254;SDS011;4663;49.120;9.730;2023-05-07T04:12:05;52.60;;;49.87;;
9254;SDS011;4663;49.120;9.730;2023-05-07T04:14:31;48.80;;;46.03;;
9254;SDS011;4663;49.120;9.730;2023-05-07T04:16:57;51.83;;;49.10;;
9254;SDS011;4663;49.120;9.730;2023-05-07T04:19:24;50.23;;;47.50;;
9254;SDS011;4663;49.120;9.730;2023-05-07T04:21:49;53.00;;;50.37;;
9254;SDS011;4663;49.120;9.730;2023-05-07T04:24:15;52.57;;;49.87;;
9254;SDS011;4663;49.120;9.730;2023-05-07T04:26:40;47.13;;;44.60;;
9254;SDS011;4663;49.120;9.730;2023-05-07T04:29:06;49.30;;;46.47;;
9254;SDS011;4663;49.120;9.730;2023-05-07T04:31:31;50.00;;;47.37;;
9254;SDS011;4663;49.120;9.730;2023-05-07T04:33:57;48.90;;;46.27;;
9254;SDS011;4663;49.120;9.730;2023-05-07T04:36:22;45.33;;;42.73;;
9254;SDS011;4663;49.120;9.730;2023-05-07T04:38:49;47.90;;;45.27;;
9254;SDS011;4663;49.120;9.730;2023-05-07T04:41:14;47.67;;;45.17;;
9254;SDS011;4663;49.120;9.730;2023-05-07T04:43:40;49.60;;;46.97;;
9254;SDS011;4663;49.120;9.730;2023-05-07T04:46:06;48.23;;;45.80;;
9254;SDS011;4663;49.120;9.730;2023-05-07T04:48:31;45.23;;;42.80;;
9254;SDS011;4663;49.120;9.730;2023-05-07T04:50:57;43.77;;;41.43;;
9254;SDS011;4663;49.120;9.730;2023-05-07T04:53:22;43.57;;;41.30;;
9254;SDS011;4663;49.120;9.730;2023-05-07T04:55:48;46.87;;;44.23;;
9254;SDS011;4663;49.120;9.730;2023-05-07T04:58:13;39.57;;;37.57;;
9254;SDS011;4663;49.120;9.730;2023-05-07T05:00:39;39.73;;;37.70;;
9254;SDS011;4663;49.120;9.730;2023-05-07T05:03:05;39.27;;;37.23;;
9254;SDS011;4663;49.120;9.730;2023-05-07T05:05:32;35.37;;;33.57;;
9254;SDS011;4663;49.120;9.730;2023-05-07T05:07:57;37.43;;;35.43;;
9254;SDS011;4663;49.120;9.730;2023-05-07T05:10:22;33.93;;;32.00;;
9254;SDS011;4663;49.120;9.730;2023-05-07T05:12:48;34.28;;;32.53;;
9254;SDS011;4663;49.120;9.730;2023-05-07T05:15:13;33.87;;;31.97;;
9254;SDS011;4663;49.120;9.730;2023-05-07T05:17:38;36.87;;;34.83;;
9254;SDS011;4663;49.120;9.730;2023-05-07T05:20:04;35.53;;;33.53;;
9254;SDS011;4663;49.120;9.730;2023-05-07T05:22:31;34.35;;;32.55;;
9254;SDS011;4663;49.120;9.730;2023-05-07T05:24:57;34.72;;;32.58;;
9254;SDS011;4663;49.120;9.730;2023-05-07T05:27:22;34.25;;;32.42;;
9254;SDS011;4663;49.120;9.730;2023-05-07T05:29:48;35.10;;;32.65;;
9254;SDS011;4663;49.120;9.730;2023-05-07T05:32:13;29.02;;;27.33;;
9254;SDS011;4663;49.120;9.730;2023-05-07T05:34:39;27.20;;;25.77;;
9254;SDS011;4663;49.120;9.730;2023-05-07T05:37:04;28.60;;;26.90;;
9254;SDS011;4663;49.120;9.730;2023-05-07T05:39:30;32.92;;;31.20;;
9254;SDS011;4663;49.120;9.730;2023-05-07T05:41:55;32.30;;;30.38;;
9254;SDS011;4663;49.120;9.730;2023-05-07T05:44:21;31.48;;;29.63;;
9254;SDS011;4663;49.120;9.730;2023-05-07T05:46:46;28.98;;;27.30;;
9254;SDS011;4663;49.120;9.730;2023-05-07T05:49:11;27.48;;;25.85;;
9254;SDS011;4663;49.120;9.730;2023-05-07T05:51:37;29.92;;;28.30;;
9254;SDS011;4663;49.120;9.730;2023-05-07T05:54:02;28.20;;;26.60;;
9254;SDS011;4663;49.120;9.730;2023-05-07T05:56:27;27.58;;;26.10;;
9254;SDS011;4663;49.120;9.730;2023-05-07T05:58:53;28.85;;;27.30;;
9254;SDS011;4663;49.120;9.730;2023-05-07T06:01:18;25.48;;;24.00;;
9254;SDS011;4663;49.120;9.730;2023-05-07T06:03:44;25.08;;;23.67;;
9254;SDS011;4663;49.120;9.730;2023-05-07T06:06:09;21.70;;;20.50;;
9254;SDS011;4663;49.120;9.730;2023-05-07T06:08:35;19.90;;;18.75;;
9254;SDS011;4663;49.120;9.730;2023-05-07T06:11:00;20.52;;;19.38;;
9254;SDS011;4663;49.120;9.730;2023-05-07T06:13:26;22.58;;;21.30;;
9254;SDS011;4663;49.120;9.730;2023-05-07T06:15:52;24.00;;;22.75;;
9254;SDS011;4663;49.120;9.730;2023-05-07T06:18:17;26.65;;;25.10;;
9254;SDS011;4663;49.120;9.730;2023-05-07T06:20:42;24.80;;;23.42;;
9254;SDS011;4663;49.120;9.730;2023-05-07T06:23:08;26.10;;;24.73;;
9254;SDS011;4663;49.120;9.730;2023-05-07T06:25:33;22.55;;;21.27;;
9254;SDS011;4663;49.120;9.730;2023-05-07T06:27:58;27.70;;;25.42;;
9254;SDS011;4663;49.120;9.730;2023-05-07T06:30:24;26.75;;;25.38;;
9254;SDS011;4663;49.120;9.730;2023-05-07T06:32:49;29.88;;;28.27;;
9254;SDS011;4663;49.120;9.730;2023-05-07T06:35:14;29.95;;;28.27;;
9254;SDS011;4663;49.120;9.730;2023-05-07T06:37:41;28.98;;;27.33;;
9254;SDS011;4663;49.120;9.730;2023-05-07T06:40:08;34.58;;;32.58;;
9254;SDS011;4663;49.120;9.730;2023-05-07T06:42:33;39.35;;;37.33;;
9254;SDS011;4663;49.120;9.730;2023-05-07T06:45:00;40.15;;;38.15;;
9254;SDS011;4663;49.120;9.730;2023-05-07T06:47:26;39.05;;;36.97;;
9254;SDS011;4663;49.120;9.730;2023-05-07T06:49:51;39.30;;;37.30;;
9254;SDS011;4663;49.120;9.730;2023-05-07T06:52:16;39.85;;;37.85;;
9254;SDS011;4663;49.120;9.730;2023-05-07T06:54:42;38.53;;;36.55;;
9254;SDS011;4663;49.120;9.730;2023-05-07T06:57:07;40.80;;;38.80;;
9254;SDS011;4663;49.120;9.730;2023-05-07T06:59:32;38.30;;;36.33;;
9254;SDS011;4663;49.120;9.730;2023-05-07T07:01:58;28.80;;;27.20;;
9254;SDS011;4663;49.120;9.730;2023-05-07T07:04:23;37.63;;;35.78;;
9254;SDS011;4663;49.120;9.730;2023-05-07T07:06:49;57.17;;;54.35;;
9254;SDS011;4663;49.120;9.730;2023-05-07T07:09:14;44.75;;;42.15;;
9254;SDS011;4663;49.120;9.730;2023-05-07T07:11:40;28.30;;;26.90;;
9254;SDS011;4663;49.120;9.730;2023-05-07T07:14:05;33.53;;;31.58;;
9254;SDS011;4663;49.120;9.730;2023-05-07T07:16:31;26.75;;;25.35;;
9254;SDS011;4663;49.120;9.730;2023-05-07T07:18:56;20.52;;;19.42;;
9254;SDS011;4663;49.120;9.730;2023-05-07T07:21:21;22.30;;;21.08;;
9254;SDS011;4663;49.120;9.730;2023-05-07T07:23:47;23.48;;;22.27;;
9254;SDS011;4663;49.120;9.730;2023-05-07T07:26:12;23.52;;;22.13;;
9254;SDS011;4663;49.120;9.730;2023-05-07T07:28:44;19.63;;;18.60;;
9254;SDS011;4663;49.120;9.730;2023-05-07T07:31:10;21.30;;;20.10;;
9254;SDS011;4663;49.120;9.730;2023-05-07T07:33:36;21.90;;;20.70;;
9254;SDS011;4663;49.120;9.730;2023-05-07T07:36:01;23.80;;;22.48;;
9254;SDS011;4663;49.120;9.730;2023-05-07T07:38:27;25.48;;;24.13;;
9254;SDS011;4663;49.120;9.730;2023-05-07T07:40:53;25.55;;;24.25;;
9254;SDS011;4663;49.120;9.730;2023-05-07T07:43:18;27.42;;;25.88;;
9254;SDS011;4663;49.120;9.730;2023-05-07T07:45:43;26.13;;;24.45;;
9254;SDS011;4663;49.120;9.730;2023-05-07T07:48:10;26.17;;;24.77;;
9254;SDS011;4663;49.120;9.730;2023-05-07T07:50:36;25.80;;;24.48;;
9254;SDS011;4663;49.120;9.730;2023-05-07T07:53:01;23.73;;;22.52;;
9254;SDS011;4663;49.120;9.730;2023-05-07T07:55:27;20.05;;;19.02;;
9254;SDS011;4663;49.120;9.730;2023-05-07T07:57:52;22.27;;;21.08;;
9254;SDS011;4663;49.120;9.730;2023-05-07T08:00:18;21.88;;;20.75;;
9254;SDS011;4663;49.120;9.730;2023-05-07T08:02:43;21.35;;;20.30;;
9254;SDS011;4663;49.120;9.730;2023-05-07T08:05:09;22.17;;;20.88;;
9254;SDS011;4663;49.120;9.730;2023-05-07T08:07:34;25.08;;;23.77;;
9254;SDS011;4663;49.120;9.730;2023-05-07T08:09:59;23.52;;;22.25;;
9254;SDS011;4663;49.120;9.730;2023-05-07T08:12:25;22.98;;;21.70;;
9254;SDS011;4663;49.120;9.730;2023-05-07T08:14:50;22.20;;;21.10;;
9254;SDS011;4663;49.120;9.730;2023-05-07T08:17:16;22.42;;;21.33;;
9254;SDS011;4663;49.120;9.730;2023-05-07T08:19:41;21.27;;;20.17;;
9254;SDS011;4663;49.120;9.730;2023-05-07T08:22:08;21.27;;;20.23;;
9254;SDS011;4663;49.120;9.730;2023-05-07T08:24:34;28.73;;;27.25;;
9254;SDS011;4663;49.120;9.730;2023-05-07T08:26:59;26.08;;;24.70;;
9254;SDS011;4663;49.120;9.730;2023-05-07T08:29:25;24.38;;;23.17;;
9254;SDS011;4663;49.120;9.730;2023-05-07T08:31:50;24.00;;;22.80;;
9254;SDS011;4663;49.120;9.730;2023-05-07T08:34:15;21.95;;;20.85;;
9254;SDS011;4663;49.120;9.730;2023-05-07T08:36:41;22.40;;;21.30;;
9254;SDS011;4663;49.120;9.730;2023-05-07T08:39:11;29.23;;;27.85;;
9254;SDS011;4663;49.120;9.730;2023-05-07T08:41:37;25.45;;;24.10;;
9254;SDS011;4663;49.120;9.730;2023-05-07T08:44:03;23.38;;;22.08;;
9254;SDS011;4663;49.120;9.730;2023-05-07T08:46:31;26.05;;;24.73;;
9254;SDS011;4663;49.120;9.730;2023-05-07T08:48:57;25.65;;;24.42;;
9254;SDS011;4663;49.120;9.730;2023-05-07T08:51:22;27.73;;;26.10;;
9254;SDS011;4663;49.120;9.730;2023-05-07T08:53:48;26.10;;;24.80;;
9254;SDS011;4663;49.120;9.730;2023-05-07T08:56:15;25.90;;;24.55;;
9254;SDS011;4663;49.120;9.730;2023-05-07T08:58:44;25.20;;;23.85;;
9254;SDS011;4663;49.120;9.730;2023-05-07T09:01:10;23.08;;;21.98;;
9254;SDS011;4663;49.120;9.730;2023-05-07T09:03:38;26.55;;;25.23;;
9254;SDS011;4663;49.120;9.730;2023-05-07T09:06:05;22.48;;;21.38;;
9254;SDS011;4663;49.120;9.730;2023-05-07T09:08:32;24.92;;;23.65;;
9254;SDS011;4663;49.120;9.730;2023-05-07T09:10:57;26.60;;;25.13;;
9254;SDS011;4663;49.120;9.730;2023-05-07T09:13:23;22.77;;;21.67;;
9254;SDS011;4663;49.120;9.730;2023-05-07T09:15:48;26.80;;;25.40;;
9254;SDS011;4663;49.120;9.730;2023-05-07T09:18:14;23.77;;;22.60;;
9254;SDS011;4663;49.120;9.730;2023-05-07T09:20:39;24.25;;;23.08;;
9254;SDS011;4663;49.120;9.730;2023-05-07T09:23:06;22.98;;;21.88;;
9254;SDS011;4663;49.120;9.730;2023-05-07T09:25:32;22.73;;;21.65;;
9254;SDS011;4663;49.120;9.730;2023-05-07T09:28:00;21.77;;;20.67;;
9254;SDS011;4663;49.120;9.730;2023-05-07T09:30:29;22.35;;;21.25;;
9254;SDS011;4663;49.120;9.730;2023-05-07T09:32:56;21.75;;;20.70;;
9254;SDS011;4663;49.120;9.730;2023-05-07T09:35:22;20.80;;;19.70;;
9254;SDS011;4663;49.120;9.730;2023-05-07T09:37:56;20.20;;;19.20;;
9254;SDS011;4663;49.120;9.730;2023-05-07T09:40:24;22.10;;;20.83;;
9254;SDS011;4663;49.120;9.730;2023-05-07T09:42:53;22.48;;;21.42;;
9254;SDS011;4663;49.120;9.730;2023-05-07T09:45:25;31.30;;;29.83;;
9254;SDS011;4663;49.120;9.730;2023-05-07T09:47:54;29.00;;;27.60;;
9254;SDS011;4663;49.120;9.730;2023-05-07T09:50:32;25.88;;;24.58;;
9254;SDS011;4663;49.120;9.730;2023-05-07T09:53:01;21.25;;;20.23;;
9254;SDS011;4663;49.120;9.730;2023-05-07T09:55:28;21.45;;;20.35;;
9254;SDS011;4663;49.120;9.730;2023-05-07T09:57:53;23.10;;;22.00;;
9254;SDS011;4663;49.120;9.730;2023-05-07T10:00:20;22.90;;;21.70;;
9254;SDS011;4663;49.120;9.730;2023-05-07T10:02:49;20.13;;;19.00;;
9254;SDS011;4663;49.120;9.730;2023-05-07T10:05:20;19.95;;;18.90;;
9254;SDS011;4663;49.120;9.730;2023-05-07T10:07:46;18.17;;;17.08;;
9254;SDS011;4663;49.120;9.730;2023-05-07T10:10:13;17.88;;;16.92;;
9254;SDS011;4663;49.120;9.730;2023-05-07T10:12:40;19.77;;;18.73;;
9254;SDS011;4663;49.120;9.730;2023-05-07T10:15:06;18.17;;;17.27;;
9254;SDS011;4663;49.120;9.730;2023-05-07T10:17:34;20.48;;;19.38;;
9254;SDS011;4663;49.120;9.730;2023-05-07T10:20:00;20.13;;;19.15;;
9254;SDS011;4663;49.120;9.730;2023-05-07T10:22:26;19.10;;;18.20;;
9254;SDS011;4663;49.120;9.730;2023-05-07T10:24:53;19.17;;;18.15;;
9254;SDS011;4663;49.120;9.730;2023-05-07T10:27:21;19.20;;;18.30;;
9254;SDS011;4663;49.120;9.730;2023-05-07T10:35:04;16.25;;;15.35;;
9254;SDS011;4663;49.120;9.730;2023-05-07T10:37:35;16.95;;;16.10;;
9254;SDS011;4663;49.120;9.730;2023-05-07T10:40:01;16.77;;;15.82;;
9254;SDS011;4663;49.120;9.730;2023-05-07T10:42:27;17.40;;;16.40;;
9254;SDS011;4663;49.120;9.730;2023-05-07T10:44:53;17.05;;;16.25;;
9254;SDS011;4663;49.120;9.730;2023-05-07T10:47:18;17.80;;;16.98;;
9254;SDS011;4663;49.120;9.730;2023-05-07T10:52:16;16.92;;;16.13;;
9254;SDS011;4663;49.120;9.730;2023-05-07T10:54:43;17.58;;;16.73;;
9254;SDS011;4663;49.120;9.730;2023-05-07T10:59:56;16.83;;;16.02;;
9254;SDS011;4663;49.120;9.730;2023-05-07T11:02:22;16.30;;;15.57;;
9254;SDS011;4663;49.120;9.730;2023-05-07T11:07:50;17.15;;;16.25;;
9254;SDS011;4663;49.120;9.730;2023-05-07T11:10:22;15.85;;;15.05;;
9254;SDS011;4663;49.120;9.730;2023-05-07T11:12:48;17.27;;;16.42;;
9254;SDS011;4663;49.120;9.730;2023-05-07T11:15:14;17.75;;;16.90;;
9254;SDS011;4663;49.120;9.730;2023-05-07T11:17:58;19.67;;;18.77;;
9254;SDS011;4663;49.120;9.730;2023-05-07T11:21:07;21.45;;;20.33;;
9254;SDS011;4663;49.120;9.730;2023-05-07T11:25:59;19.75;;;18.75;;
9254;SDS011;4663;49.120;9.730;2023-05-07T11:28:25;18.30;;;17.50;;
9254;SDS011;4663;49.120;9.730;2023-05-07T11:30:53;21.00;;;19.67;;
9254;SDS011;4663;49.120;9.730;2023-05-07T11:33:19;19.05;;;18.05;;
9254;SDS011;4663;49.120;9.730;2023-05-07T11:35:44;18.77;;;17.73;;
9254;SDS011;4663;49.120;9.730;2023-05-07T11:38:10;20.35;;;19.30;;
9254;SDS011;4663;49.120;9.730;2023-05-07T11:40:49;19.05;;;18.15;;
9254;SDS011;4663;49.120;9.730;2023-05-07T11:43:19;17.50;;;16.58;;
9254;SDS011;4663;49.120;9.730;2023-05-07T11:45:47;16.83;;;16.02;;
9254;SDS011;4663;49.120;9.730;2023-05-07T11:48:13;18.42;;;17.52;;
9254;SDS011;4663;49.120;9.730;2023-05-07T11:50:50;19.98;;;18.88;;
9254;SDS011;4663;49.120;9.730;2023-05-07T11:53:16;17.30;;;16.50;;
9254;SDS011;4663;49.120;9.730;2023-05-07T11:55:42;19.63;;;18.40;;
9254;SDS011;4663;49.120;9.730;2023-05-07T11:58:09;17.92;;;17.02;;
9254;SDS011;4663;49.120;9.730;2023-05-07T12:00:37;16.27;;;15.52;;
9254;SDS011;4663;49.120;9.730;2023-05-07T12:03:05;18.08;;;17.17;;
9254;SDS011;4663;49.120;9.730;2023-05-07T12:05:31;17.10;;;16.30;;
9254;SDS011;4663;49.120;9.730;2023-05-07T12:07:59;18.58;;;17.70;;
9254;SDS011;4663;49.120;9.730;2023-05-07T12:10:25;21.13;;;20.08;;
9254;SDS011;4663;49.120;9.730;2023-05-07T12:12:50;22.85;;;21.60;;
9254;SDS011;4663;49.120;9.730;2023-05-07T12:15:22;23.85;;;22.65;;
9254;SDS011;4663;49.120;9.730;2023-05-07T12:17:48;22.02;;;20.77;;
9254;SDS011;4663;49.120;9.730;2023-05-07T12:20:13;20.73;;;19.75;;
9254;SDS011;4663;49.120;9.730;2023-05-07T12:22:40;21.00;;;20.02;;
9254;SDS011;4663;49.120;9.730;2023-05-07T12:25:06;20.48;;;19.48;;
9254;SDS011;4663;49.120;9.730;2023-05-07T12:27:31;18.40;;;17.35;;
9254;SDS011;4663;49.120;9.730;2023-05-07T12:29:57;17.88;;;17.02;;
9254;SDS011;4663;49.120;9.730;2023-05-07T12:32:23;20.30;;;19.35;;
9254;SDS011;4663;49.120;9.730;2023-05-07T12:34:50;23.00;;;21.90;;
9254;SDS011;4663;49.120;9.730;2023-05-07T12:37:16;25.02;;;23.75;;
9254;SDS011;4663;49.120;9.730;2023-05-07T12:39:48;21.33;;;20.30;;
9254;SDS011;4663;49.120;9.730;2023-05-07T12:42:15;21.65;;;20.55;;
9254;SDS011;4663;49.120;9.730;2023-05-07T12:44:41;21.98;;;20.95;;
9254;SDS011;4663;49.120;9.730;2023-05-07T12:47:11;26.15;;;24.83;;
9254;SDS011;4663;49.120;9.730;2023-05-07T12:49:37;24.00;;;22.80;;
9254;SDS011;4663;49.120;9.730;2023-05-07T12:52:03;24.13;;;22.98;;
9254;SDS011;4663;49.120;9.730;2023-05-07T12:54:34;23.48;;;22.27;;
9254;SDS011;4663;49.120;9.730;2023-05-07T12:59:34;31.80;;;30.05;;
9254;SDS011;4663;49.120;9.730;2023-05-07T13:02:01;22.65;;;21.55;;
9254;SDS011;4663;49.120;9.730;2023-05-07T13:04:27;21.17;;;20.08;;
9254;SDS011;4663;49.120;9.730;2023-05-07T13:06:52;22.13;;;21.02;;
9254;SDS011;4663;49.120;9.730;2023-05-07T13:09:17;21.05;;;19.92;;
9254;SDS011;4663;49.120;9.730;2023-05-07T13:11:43;25.33;;;24.13;;
9254;SDS011;4663;49.120;9.730;2023-05-07T13:14:08;24.08;;;22.88;;
9254;SDS011;4663;49.120;9.730;2023-05-07T13:16:33;22.42;;;21.33;;
9254;SDS011;4663;49.120;9.730;2023-05-07T13:18:59;20.65;;;19.63;;
9254;SDS011;4663;49.120;9.730;2023-05-07T13:21:24;20.65;;;19.55;;
9254;SDS011;4663;49.120;9.730;2023-05-07T13:23:50;17.02;;;16.23;;
9254;SDS011;4663;49.120;9.730;2023-05-07T13:26:15;18.05;;;17.17;;
9254;SDS011;4663;49.120;9.730;2023-05-07T13:28:41;18.33;;;17.33;;
9254;SDS011;4663;49.120;9.730;2023-05-07T13:31:06;21.10;;;20.00;;
9254;SDS011;4663;49.120;9.730;2023-05-07T13:33:32;21.60;;;20.58;;
9254;SDS011;4663;49.120;9.730;2023-05-07T13:35:57;23.25;;;22.05;;
9254;SDS011;4663;49.120;9.730;2023-05-07T13:38:25;21.20;;;20.02;;
9254;SDS011;4663;49.120;9.730;2023-05-07T13:40:51;18.13;;;17.13;;
9254;SDS011;4663;49.120;9.730;2023-05-07T13:43:16;18.15;;;17.15;;
9254;SDS011;4663;49.120;9.730;2023-05-07T13:45:42;18.40;;;17.48;;
9254;SDS011;4663;49.120;9.730;2023-05-07T13:48:07;19.05;;;18.15;;
9254;SDS011;4663;49.120;9.730;2023-05-07T13:50:33;18.40;;;17.45;;
9254;SDS011;4663;49.120;9.730;2023-05-07T13:52:58;18.92;;;18.00;;
9254;SDS011;4663;49.120;9.730;2023-05-07T13:55:24;20.52;;;19.52;;
9254;SDS011;4663;49.120;9.730;2023-05-07T13:57:56;22.27;;;21.13;;
9254;SDS011;4663;49.120;9.730;2023-05-07T14:00:23;21.75;;;20.75;;
9254;SDS011;4663;49.120;9.730;2023-05-07T14:02:49;20.48;;;19.48;;
9254;SDS011;4663;49.120;9.730;2023-05-07T14:05:14;23.40;;;22.17;;
9254;SDS011;4663;49.120;9.730;2023-05-07T14:07:40;22.20;;;21.10;;
9254;SDS011;4663;49.120;9.730;2023-05-07T14:10:05;21.48;;;20.48;;
9254;SDS011;4663;49.120;9.730;2023-05-07T14:12:32;21.92;;;20.73;;
9254;SDS011;4663;49.120;9.730;2023-05-07T14:14:57;21.73;;;20.63;;
9254;SDS011;4663;49.120;9.730;2023-05-07T14:17:23;22.17;;;20.83;;
9254;SDS011;4663;49.120;9.730;2023-05-07T14:19:51;20.85;;;19.85;;
9254;SDS011;4663;49.120;9.730;2023-05-07T14:22:18;21.60;;;20.50;;
9254;SDS011;4663;49.120;9.730;2023-05-07T14:24:45;21.73;;;20.63;;
9254;SDS011;4663;49.120;9.730;2023-05-07T14:27:10;22.30;;;21.15;;
9254;SDS011;4663;49.120;9.730;2023-05-07T14:29:36;22.70;;;21.60;;
9254;SDS011;4663;49.120;9.730;2023-05-07T14:32:02;21.67;;;20.67;;
9254;SDS011;4663;49.120;9.730;2023-05-07T14:34:28;22.77;;;21.67;;
9254;SDS011;4663;49.120;9.730;2023-05-07T14:36:53;20.58;;;19.58;;
9254;SDS011;4663;49.120;9.730;2023-05-07T14:39:20;22.40;;;21.30;;
9254;SDS011;4663;49.120;9.730;2023-05-07T14:41:45;22.45;;;21.30;;
9254;SDS011;4663;49.120;9.730;2023-05-07T14:44:11;21.23;;;20.23;;
9254;SDS011;4663;49.120;9.730;2023-05-07T14:46:36;22.40;;;21.30;;
9254;SDS011;4663;49.120;9.730;2023-05-07T14:49:01;22.40;;;21.30;;
9254;SDS011;4663;49.120;9.730;2023-05-07T14:51:28;21.75;;;20.70;;
9254;SDS011;4663;49.120;9.730;2023-05-07T14:53:53;20.85;;;19.75;;
9254;SDS011;4663;49.120;9.730;2023-05-07T14:56:19;22.42;;;21.27;;
9254;SDS011;4663;49.120;9.730;2023-05-07T14:58:46;21.48;;;20.48;;
9254;SDS011;4663;49.120;9.730;2023-05-07T15:01:12;21.70;;;20.70;;